createdAt,value
2023-05-14T00:01:48.936Z,8.57
2023-05-14T00:06:42.149Z,9.50
2023-05-14T00:11:35.343Z,8.40
2023-05-14T00:16:27.811Z,10.37
2023-05-14T00:21:20.474Z,8.87
2023-05-14T00:26:12.668Z,8.27
2023-05-14T00:31:08.909Z,9.53
2023-05-14T00:36:01.005Z,9.37
2023-05-14T00:40:55.479Z,11.90
2023-05-14T00:45:51.941Z,9.80
2023-05-14T00:50:44.131Z,10.53
2023-05-14T00:55:43.459Z,11.23
2023-05-14T01:00:37.298Z,10.67
2023-05-14T01:06:01.284Z,10.63
2023-05-14T01:11:04.974Z,12.40
2023-05-14T01:16:02.058Z,11.70
2023-05-14T01:20:57.453Z,9.40
2023-05-14T01:25:51.283Z,8.93
2023-05-14T01:31:02.120Z,11.63
2023-05-14T01:35:55.510Z,8.67
2023-05-14T01:40:49.270Z,10.20
2023-05-14T01:45:42.694Z,10.33
2023-05-14T01:50:34.933Z,12.80
2023-05-14T01:55:27.320Z,9.60
2023-05-14T02:00:20.837Z,10.87
2023-05-14T02:05:13.472Z,10.47
2023-05-14T02:10:08.463Z,10.23
2023-05-14T02:15:00.428Z,9.13
2023-05-14T02:19:53.327Z,13.40
2023-05-14T02:24:45.227Z,13.00
2023-05-14T02:29:39.571Z,11.77
2023-05-14T02:34:34.156Z,9.93
2023-05-14T02:39:27.497Z,9.57
2023-05-14T02:44:22.894Z,9.47
2023-05-14T02:49:17.425Z,9.00
2023-05-14T02:54:09.746Z,9.53
2023-05-14T02:59:05.872Z,8.73
2023-05-14T03:03:59.984Z,9.07
2023-05-14T03:08:52.272Z,11.20
2023-05-14T03:13:44.776Z,10.47
2023-05-14T03:18:36.999Z,8.40
2023-05-14T03:23:29.802Z,10.67
2023-05-14T03:28:29.171Z,10.50
2023-05-14T03:33:21.393Z,8.40
2023-05-14T03:38:17.462Z,9.60
2023-05-14T03:43:11.831Z,9.77
2023-05-14T03:48:05.060Z,9.77
2023-05-14T03:52:59.451Z,8.70
2023-05-14T03:57:51.592Z,8.98
2023-05-14T04:02:48.130Z,8.85
2023-05-14T04:07:46.065Z,8.90
2023-05-14T04:12:39.171Z,9.18
2023-05-14T04:17:41.092Z,10.80
2023-05-14T04:22:40.810Z,9.45
2023-05-14T04:27:34.466Z,8.82
2023-05-14T04:32:27.674Z,8.87
2023-05-14T04:37:21.112Z,8.48
2023-05-14T04:42:14.759Z,9.63
2023-05-14T04:47:07.054Z,9.47
2023-05-14T04:51:59.882Z,8.63
2023-05-14T04:56:52.385Z,8.60
2023-05-14T05:01:46.839Z,11.18
2023-05-14T05:06:41.401Z,9.23
2023-05-14T06:44:11.960Z,9.93
2023-05-14T06:49:04.541Z,9.85
2023-05-14T06:53:57.993Z,9.80
2023-05-14T06:58:50.201Z,10.13
2023-05-14T07:03:42.371Z,8.73
2023-05-14T07:08:34.751Z,9.95
2023-05-14T07:13:28.883Z,7.43
2023-05-14T07:18:22.570Z,7.68
2023-05-14T07:23:16.586Z,7.72
2023-05-14T07:28:09.642Z,11.23
2023-05-14T07:33:02.690Z,8.48
2023-05-14T07:37:56.664Z,6.80
2023-05-14T07:42:49.633Z,6.47
2023-05-14T07:47:43.505Z,7.75
2023-05-14T07:52:36.064Z,5.88
2023-05-14T07:57:28.440Z,7.22
2023-05-14T08:02:22.194Z,6.07
2023-05-14T08:07:15.196Z,5.78
2023-05-14T08:12:07.841Z,7.40
2023-05-14T08:17:00.249Z,5.63
2023-05-14T08:21:52.501Z,6.43
2023-05-14T08:26:45.271Z,5.13
2023-05-14T08:31:38.704Z,5.65
2023-05-14T08:36:32.966Z,3.95
2023-05-14T08:41:25.932Z,3.92
2023-05-14T08:46:22.502Z,3.40
2023-05-14T08:51:14.863Z,4.93
2023-05-14T08:56:09.052Z,2.53
2023-05-14T09:01:01.316Z,3.67
2023-05-14T09:05:54.142Z,2.45
2023-05-14T09:10:47.179Z,2.33
2023-05-14T09:15:41.782Z,4.53
2023-05-14T09:20:33.820Z,2.95
2023-05-14T09:25:32.994Z,3.70
2023-05-14T09:30:27.447Z,3.20
2023-05-14T09:35:21.729Z,3.77
2023-05-14T10:37:07.400Z,7.03
2023-05-14T10:42:05.869Z,4.60
2023-05-14T10:46:59.831Z,5.17
2023-05-14T10:51:58.489Z,5.00
2023-05-14T10:56:53.027Z,4.23
2023-05-14T11:01:46.490Z,3.90
2023-05-14T11:06:40.532Z,6.30
2023-05-14T11:11:35.890Z,6.70
2023-05-14T11:16:44.244Z,5.53
2023-05-14T11:22:02.719Z,8.07
2023-05-14T11:27:01.178Z,6.90
2023-05-14T11:31:55.830Z,8.57
2023-05-14T11:36:48.175Z,6.97
2023-05-14T11:41:46.520Z,7.17
2023-05-14T11:46:39.156Z,5.73
2023-05-14T11:51:34.151Z,6.50
2023-05-14T11:56:26.435Z,6.17
2023-05-14T12:01:19.458Z,7.73
2023-05-14T12:06:13.549Z,9.33
2023-05-14T12:11:07.242Z,5.57
2023-05-14T12:16:02.375Z,7.27
2023-05-14T12:20:56.735Z,5.30
2023-05-14T12:25:52.577Z,5.63
2023-05-14T12:30:47.514Z,6.77
2023-05-14T12:35:41.141Z,4.53
2023-05-14T12:40:40.526Z,5.20
2023-05-14T12:45:33.105Z,3.53
2023-05-14T12:50:25.481Z,7.07
2023-05-14T12:55:21.080Z,3.13
2023-05-14T13:00:18.570Z,4.67
2023-05-14T13:05:11.849Z,5.40
2023-05-14T13:15:16.739Z,4.47
2023-05-14T13:20:10.104Z,2.90
2023-05-14T13:25:03.824Z,3.73
2023-05-14T13:29:55.981Z,4.93
2023-05-14T13:34:48.085Z,3.23
2023-05-14T13:39:41.150Z,4.90
2023-05-14T13:49:53.818Z,5.57
2023-05-14T13:54:46.649Z,3.40
2023-05-14T13:59:40.900Z,3.03
2023-05-14T14:04:33.635Z,4.37
2023-05-14T14:09:26.081Z,3.57
2023-05-14T14:14:18.806Z,2.83
2023-05-14T14:19:13.024Z,3.00
2023-05-14T14:24:08.381Z,4.00
2023-05-14T14:29:00.449Z,2.93
2023-05-14T14:33:53.450Z,4.67
2023-05-14T14:38:45.958Z,3.60
2023-05-14T14:43:41.432Z,3.03
2023-05-14T14:53:55.773Z,4.47
2023-05-14T14:58:47.841Z,3.77
2023-05-14T15:03:42.091Z,5.93
2023-05-14T15:08:35.707Z,2.43
2023-05-14T15:13:28.959Z,3.60
2023-05-14T15:18:21.582Z,2.30
2023-05-14T15:23:13.624Z,3.37
2023-05-14T15:28:07.596Z,4.60
2023-05-14T15:33:00.144Z,4.07
2023-05-14T15:37:56.190Z,3.37
2023-05-14T15:42:48.828Z,2.90
2023-05-14T15:47:41.858Z,4.63
2023-05-14T15:52:35.590Z,5.87
2023-05-14T15:57:28.232Z,2.60
2023-05-14T16:02:20.764Z,2.83
2023-05-14T16:07:13.594Z,3.40
2023-05-14T16:12:09.721Z,2.60
2023-05-14T16:17:02.246Z,3.00
2023-05-14T16:21:54.840Z,2.83
2023-05-14T16:26:47.064Z,3.37
2023-05-14T16:31:40.101Z,4.83
2023-05-14T16:36:36.519Z,4.43
2023-05-14T16:41:32.668Z,5.87
2023-05-14T16:46:30.014Z,3.60
2023-05-14T16:51:22.767Z,2.40
2023-05-14T16:56:14.938Z,2.30
2023-05-14T17:07:49.282Z,2.67
2023-05-14T17:12:41.671Z,2.50
2023-05-14T17:17:35.937Z,3.33
2023-05-14T17:22:30.818Z,3.07
2023-05-14T17:27:23.419Z,3.77
2023-05-14T17:32:15.953Z,2.73
2023-05-14T17:37:08.188Z,2.73
2023-05-14T17:42:02.143Z,3.53
2023-05-14T17:46:54.541Z,2.80
2023-05-14T17:51:48.796Z,3.83
2023-05-14T17:56:42.207Z,2.30
2023-05-14T18:01:35.569Z,2.50
2023-05-14T18:06:29.155Z,2.37
2023-05-14T18:11:21.605Z,4.87
2023-05-14T18:16:14.008Z,2.63
2023-05-14T18:21:09.167Z,2.67
2023-05-14T18:26:04.461Z,3.23
2023-05-14T18:30:57.993Z,2.50
2023-05-14T18:35:51.902Z,4.53
2023-05-14T18:40:47.868Z,5.93
2023-05-14T18:45:40.604Z,6.72
2023-05-14T18:55:50.766Z,6.32
2023-05-14T19:00:43.433Z,8.57
2023-05-14T19:05:38.788Z,5.87
2023-05-14T19:10:35.378Z,5.60
2023-05-14T19:15:32.806Z,14.20
2023-05-14T19:20:25.979Z,4.75
2023-05-14T19:25:19.455Z,2.83
2023-05-14T19:30:13.770Z,7.27
2023-05-14T19:35:06.638Z,4.10
2023-05-14T19:40:00.312Z,5.53
2023-05-14T19:44:52.571Z,3.50
2023-05-14T19:49:49.550Z,3.85
2023-05-14T19:54:46.538Z,3.10
2023-05-14T19:59:39.523Z,3.33
2023-05-14T20:04:32.094Z,3.45
2023-05-14T20:09:24.440Z,2.80
2023-05-14T20:19:33.051Z,2.10
2023-05-14T20:24:25.360Z,2.00
2023-05-14T20:29:20.480Z,1.70
2023-05-14T20:34:12.579Z,1.67
2023-05-14T20:39:06.899Z,2.63
2023-05-14T20:43:59.606Z,2.28
2023-05-14T22:34:43.057Z,5.57
2023-05-14T22:39:35.378Z,4.68
2023-05-14T22:44:30.064Z,3.33
2023-05-14T22:49:22.168Z,4.57
2023-05-14T22:54:14.322Z,3.15
2023-05-14T22:59:07.345Z,3.58
2023-05-14T23:03:59.217Z,3.90
2023-05-14T23:08:51.181Z,3.20
2023-05-14T23:13:43.169Z,3.42
2023-05-14T23:18:35.178Z,4.07
2023-05-14T23:23:28.073Z,4.78
2023-05-14T23:28:19.920Z,5.13
2023-05-14T23:33:12.660Z,6.65
2023-05-14T23:38:08.163Z,6.70
2023-05-14T23:43:01.114Z,6.93
2023-05-14T23:47:57.178Z,7.32
2023-05-14T23:52:49.168Z,7.88
2023-05-14T23:57:41.846Z,8.17
